createdAt,value
2017-11-17T00:00:12.349Z,7.47
2017-11-17T00:01:12.769Z,7.47
2017-11-17T00:02:34.350Z,7.50
2017-11-17T00:03:13.624Z,7.47
2017-11-17T00:04:14.051Z,7.58
2017-11-17T00:05:14.466Z,7.66
2017-11-17T00:06:14.883Z,7.61
2017-11-17T00:07:15.311Z,7.63
2017-11-17T00:08:36.894Z,7.42
2017-11-17T00:09:16.158Z,7.58
2017-11-17T00:10:16.581Z,7.60
2017-11-17T00:11:17.007Z,7.63
2017-11-17T00:12:17.427Z,7.56
2017-11-17T00:13:17.857Z,7.67
2017-11-17T00:14:39.432Z,7.60
2017-11-17T00:15:18.707Z,7.82
2017-11-17T00:16:19.125Z,7.82
2017-11-17T00:17:19.550Z,7.85
2017-11-17T00:18:19.973Z,7.83
2017-11-17T00:19:20.395Z,7.76
2017-11-17T00:20:41.977Z,7.63
2017-11-17T00:21:21.250Z,7.73
2017-11-17T00:22:21.672Z,7.79
2017-11-17T00:23:22.104Z,7.63
2017-11-17T00:24:22.521Z,7.50
2017-11-17T00:25:22.943Z,7.60
2017-11-17T00:26:44.517Z,7.48
2017-11-17T00:27:23.788Z,7.63
2017-11-17T00:28:24.214Z,7.66
2017-11-17T00:29:24.631Z,7.77
2017-11-17T00:30:25.058Z,7.66
2017-11-17T00:31:25.486Z,7.63
2017-11-17T00:32:47.062Z,7.35
2017-11-17T00:33:26.333Z,7.48
2017-11-17T00:34:26.754Z,7.31
2017-11-17T00:35:27.179Z,7.48
2017-11-17T00:36:27.605Z,7.48
2017-11-17T00:37:28.029Z,7.39
2017-11-17T00:38:49.609Z,7.48
2017-11-17T00:39:28.874Z,7.42
2017-11-17T00:40:29.308Z,7.35
2017-11-17T00:41:29.728Z,7.40
2017-11-17T00:42:30.150Z,7.36
2017-11-17T00:43:30.573Z,7.35
2017-11-17T00:44:52.150Z,7.51
2017-11-17T00:45:31.425Z,7.58
2017-11-17T00:46:31.852Z,7.48
2017-11-17T00:47:32.267Z,7.42
2017-11-17T00:48:32.697Z,7.36
2017-11-17T00:49:33.113Z,7.56
2017-11-17T00:50:54.694Z,7.66
2017-11-17T00:51:33.958Z,7.54
2017-11-17T00:52:34.382Z,7.61
2017-11-17T00:53:34.812Z,7.75
2017-11-17T00:54:35.232Z,7.73
2017-11-17T00:55:35.658Z,7.69
2017-11-17T00:56:57.241Z,7.80
2017-11-17T00:57:36.507Z,7.82
2017-11-17T00:58:36.934Z,7.85
2017-11-17T00:59:37.353Z,7.80
2017-11-17T01:00:37.776Z,7.85
2017-11-17T01:01:38.201Z,7.87
2017-11-17T01:02:59.781Z,7.88
2017-11-17T01:03:39.047Z,7.95
2017-11-17T01:04:39.473Z,7.97
2017-11-17T01:05:39.900Z,7.97
2017-11-17T01:06:40.330Z,8.00
2017-11-17T01:07:40.753Z,8.01
2017-11-17T01:09:02.333Z,8.01
2017-11-17T01:09:41.597Z,7.76
2017-11-17T01:10:42.017Z,7.91
2017-11-17T01:11:42.442Z,7.94
2017-11-17T01:12:42.860Z,7.91
2017-11-17T01:13:43.294Z,8.03
2017-11-17T01:15:04.871Z,8.06
2017-11-17T01:15:44.137Z,8.01
2017-11-17T01:16:44.562Z,8.10
2017-11-17T01:17:44.983Z,8.06
2017-11-17T01:18:45.413Z,8.08
2017-11-17T01:19:45.830Z,8.08
2017-11-17T01:21:07.415Z,7.95
2017-11-17T01:21:46.682Z,8.06
2017-11-17T01:22:47.104Z,8.09
2017-11-17T01:23:47.530Z,8.06
2017-11-17T01:24:47.969Z,8.12
2017-11-17T01:25:48.380Z,8.09
2017-11-17T01:27:09.972Z,8.09
2017-11-17T01:27:49.225Z,8.08
2017-11-17T01:28:49.650Z,8.16
2017-11-17T01:29:50.074Z,8.15
2017-11-17T01:30:50.499Z,8.23
2017-11-17T01:31:50.929Z,8.12
2017-11-17T01:33:12.521Z,8.09
2017-11-17T01:33:51.772Z,8.13
2017-11-17T01:34:52.207Z,8.13
2017-11-17T01:35:52.622Z,8.09
2017-11-17T01:36:53.043Z,8.20
2017-11-17T01:37:53.470Z,8.09
2017-11-17T01:39:15.049Z,8.10
2017-11-17T01:39:54.328Z,8.06
2017-11-17T01:40:54.743Z,8.05
2017-11-17T01:41:55.164Z,7.94
2017-11-17T01:42:55.589Z,7.88
2017-11-17T01:43:56.011Z,7.80
2017-11-17T01:45:17.603Z,7.77
2017-11-17T01:45:56.860Z,7.87
2017-11-17T01:46:57.286Z,7.82
2017-11-17T01:47:57.708Z,7.82
2017-11-17T01:48:58.139Z,7.82
2017-11-17T01:49:58.558Z,7.83
2017-11-17T01:51:20.136Z,7.82
2017-11-17T01:51:59.405Z,7.72
2017-11-17T01:52:59.865Z,7.69
2017-11-17T01:54:00.254Z,7.60
2017-11-17T01:55:00.691Z,7.77
2017-11-17T01:56:01.103Z,7.83
2017-11-17T01:57:22.682Z,7.80
2017-11-17T01:58:01.945Z,7.82
2017-11-17T01:59:02.369Z,7.67
2017-11-17T02:00:02.795Z,7.79
2017-11-17T02:01:03.218Z,7.80
2017-11-17T02:02:03.645Z,7.82
2017-11-17T02:03:25.226Z,7.72
2017-11-17T02:04:04.494Z,7.79
2017-11-17T02:05:04.920Z,7.67
2017-11-17T02:06:05.339Z,7.66
2017-11-17T02:07:05.765Z,7.70
2017-11-17T02:08:06.193Z,7.66
2017-11-17T02:09:27.772Z,7.70
2017-11-17T02:10:07.034Z,7.69
2017-11-17T02:11:07.465Z,7.69
2017-11-17T02:12:07.881Z,7.63
2017-11-17T02:13:08.309Z,7.75
2017-11-17T02:14:08.730Z,7.56
2017-11-17T02:15:30.313Z,7.70
2017-11-17T02:16:09.582Z,7.61
2017-11-17T02:17:10.008Z,7.51
2017-11-17T02:18:10.431Z,7.48
2017-11-17T02:19:10.851Z,7.53
2017-11-17T02:20:11.273Z,7.56
2017-11-17T02:21:32.867Z,7.40
2017-11-17T02:22:12.123Z,7.51
2017-11-17T02:23:12.543Z,7.57
2017-11-17T02:24:12.971Z,7.69
2017-11-17T02:25:13.395Z,7.67
2017-11-17T02:26:13.813Z,7.72
2017-11-17T02:27:35.406Z,7.57
2017-11-17T02:28:14.660Z,7.70
2017-11-17T02:29:15.088Z,7.67
2017-11-17T02:30:15.517Z,7.72
2017-11-17T02:31:15.934Z,7.72
2017-11-17T02:32:16.359Z,7.61
2017-11-17T02:33:37.943Z,7.73
2017-11-17T02:34:17.208Z,7.66
2017-11-17T02:35:17.637Z,7.57
2017-11-17T02:36:18.050Z,7.60
2017-11-17T02:37:18.479Z,7.83
2017-11-17T02:38:18.901Z,7.76
2017-11-17T02:39:40.482Z,7.72
2017-11-17T02:40:19.748Z,7.53
2017-11-17T02:41:20.172Z,7.56
2017-11-17T02:42:20.596Z,7.61
2017-11-17T02:43:21.030Z,7.54
2017-11-17T02:44:21.442Z,7.76
2017-11-17T02:45:43.024Z,7.69
2017-11-17T02:46:22.292Z,7.67
2017-11-17T02:47:22.717Z,7.69
2017-11-17T02:48:23.140Z,7.70
2017-11-17T02:49:23.562Z,7.75
2017-11-17T02:50:23.986Z,7.82
2017-11-17T02:51:45.566Z,7.80
2017-11-17T02:52:24.846Z,7.82
2017-11-17T02:53:25.253Z,7.80
2017-11-17T02:54:25.677Z,7.61
2017-11-17T02:55:26.113Z,7.73
2017-11-17T02:56:26.526Z,7.77
2017-11-17T02:57:48.106Z,7.73
2017-11-17T02:58:27.377Z,7.75
2017-11-17T02:59:27.800Z,7.79
2017-11-17T03:00:28.221Z,7.79
2017-11-17T03:01:28.649Z,7.85
2017-11-17T03:02:29.078Z,7.87
2017-11-17T03:03:50.652Z,7.79
2017-11-17T03:04:29.916Z,7.79
2017-11-17T03:05:30.339Z,7.82
2017-11-17T03:06:30.783Z,7.88
2017-11-17T03:07:31.191Z,7.82
2017-11-17T03:08:31.614Z,7.97
2017-11-17T03:09:53.198Z,8.00
2017-11-17T03:10:32.457Z,7.93
2017-11-17T03:11:32.889Z,8.05
2017-11-17T03:12:33.316Z,8.01
2017-11-17T03:13:33.731Z,8.05
2017-11-17T03:14:34.161Z,8.08
2017-11-17T03:15:55.750Z,8.05
2017-11-17T03:16:35.007Z,8.12
2017-11-17T03:17:35.426Z,8.06
2017-11-17T03:18:35.853Z,8.10
2017-11-17T03:19:36.280Z,8.08
2017-11-17T03:20:36.702Z,8.10
2017-11-17T03:21:58.284Z,8.00
2017-11-17T03:22:37.554Z,7.82
2017-11-17T03:23:37.984Z,7.83
2017-11-17T03:24:38.404Z,7.98
2017-11-17T03:25:38.822Z,7.85
2017-11-17T03:26:39.248Z,7.97
2017-11-17T03:28:00.829Z,8.03
2017-11-17T03:28:40.099Z,8.08
2017-11-17T03:29:40.518Z,8.06
2017-11-17T03:30:40.944Z,8.08
2017-11-17T03:31:41.369Z,8.09
2017-11-17T03:32:41.810Z,8.09
2017-11-17T03:34:03.374Z,8.19
2017-11-17T03:34:42.664Z,8.20
2017-11-17T03:35:43.093Z,8.23
2017-11-17T03:36:43.494Z,8.16
2017-11-17T03:37:43.925Z,8.13
2017-11-17T03:38:44.338Z,8.20
2017-11-17T03:40:05.926Z,8.23
2017-11-17T03:40:45.207Z,8.06
2017-11-17T03:41:45.621Z,8.16
2017-11-17T03:42:46.036Z,8.16
2017-11-17T03:43:46.462Z,8.19
2017-11-17T03:44:46.878Z,8.16
2017-11-17T03:46:08.470Z,8.27
2017-11-17T03:46:47.728Z,8.28
2017-11-17T03:47:48.151Z,8.24
2017-11-17T03:48:48.577Z,8.26
2017-11-17T03:49:49.006Z,8.16
2017-11-17T03:50:49.432Z,8.26
2017-11-17T03:52:11.006Z,8.12
2017-11-17T03:52:50.273Z,8.16
2017-11-17T03:53:50.703Z,8.19
2017-11-17T03:54:51.125Z,8.23
2017-11-17T03:55:51.546Z,8.27
2017-11-17T03:56:51.970Z,8.36
2017-11-17T03:58:13.549Z,8.26
2017-11-17T03:58:52.825Z,8.26
2017-11-17T03:59:53.244Z,8.24
2017-11-17T04:00:53.664Z,8.38
2017-11-17T04:01:54.092Z,8.30
2017-11-17T04:02:54.519Z,8.26
2017-11-17T04:04:16.098Z,8.30
2017-11-17T04:04:55.368Z,8.41
2017-11-17T04:05:55.803Z,8.41
2017-11-17T04:06:56.213Z,8.49
2017-11-17T04:07:56.651Z,8.46
2017-11-17T04:08:57.060Z,8.45
2017-11-17T04:10:18.649Z,8.44
2017-11-17T04:10:57.920Z,8.42
2017-11-17T04:11:58.335Z,8.41
2017-11-17T04:12:58.765Z,8.48
2017-11-17T04:13:59.185Z,8.33
2017-11-17T04:14:59.607Z,8.37
2017-11-17T04:16:21.195Z,8.48
2017-11-17T04:17:00.464Z,8.48
2017-11-17T04:18:00.889Z,8.48
2017-11-17T04:19:01.321Z,8.53
2017-11-17T04:20:01.733Z,8.52
2017-11-17T04:21:02.165Z,8.46
2017-11-17T04:22:23.738Z,8.34
2017-11-17T04:23:03.007Z,8.44
2017-11-17T04:24:03.431Z,8.42
2017-11-17T04:25:03.856Z,8.23
2017-11-17T04:26:04.275Z,8.16
2017-11-17T04:27:04.707Z,8.30
2017-11-17T04:28:26.300Z,8.33
2017-11-17T04:29:05.550Z,8.36
2017-11-17T04:30:05.975Z,8.44
2017-11-17T04:31:06.402Z,8.51
2017-11-17T04:32:06.825Z,8.51
2017-11-17T04:33:07.251Z,8.49
2017-11-17T04:34:28.832Z,8.55
2017-11-17T04:35:08.098Z,8.56
2017-11-17T04:36:08.525Z,8.70
2017-11-17T04:37:08.948Z,8.67
2017-11-17T04:38:09.370Z,8.48
2017-11-17T04:39:09.804Z,8.46
2017-11-17T04:40:31.378Z,8.45
2017-11-17T04:41:10.647Z,8.36
2017-11-17T04:42:11.096Z,8.37
2017-11-17T04:43:11.498Z,8.30
2017-11-17T04:44:11.923Z,8.31
2017-11-17T04:45:12.343Z,8.28
2017-11-17T04:46:33.925Z,8.37
2017-11-17T04:47:13.207Z,8.41
2017-11-17T04:48:13.623Z,8.30
2017-11-17T04:49:14.046Z,8.44
2017-11-17T04:50:14.465Z,8.46
2017-11-17T04:51:14.896Z,8.37
2017-11-17T04:52:36.474Z,8.41
2017-11-17T04:53:15.742Z,8.34
2017-11-17T04:54:16.167Z,8.37
2017-11-17T04:55:16.587Z,8.46
2017-11-17T04:56:17.016Z,8.38
2017-11-17T04:57:17.460Z,8.36
2017-11-17T04:58:39.042Z,8.45
2017-11-17T04:59:18.286Z,8.44
2017-11-17T05:00:18.715Z,8.45
2017-11-17T05:01:19.140Z,8.46
2017-11-17T05:02:19.587Z,8.45
2017-11-17T05:03:19.987Z,8.45
2017-11-17T05:04:41.579Z,8.48
2017-11-17T05:05:20.830Z,8.46
2017-11-17T05:06:21.260Z,8.51
2017-11-17T05:07:21.684Z,8.46
2017-11-17T05:08:22.107Z,8.45
2017-11-17T05:09:22.566Z,8.42
2017-11-17T05:10:44.117Z,8.45
2017-11-17T05:11:23.378Z,8.46
2017-11-17T05:12:23.829Z,8.51
2017-11-17T05:13:24.227Z,8.55
2017-11-17T05:14:24.658Z,8.46
2017-11-17T05:15:25.074Z,8.46
2017-11-17T05:16:46.663Z,8.46
2017-11-17T05:17:25.943Z,8.51
2017-11-17T05:18:26.351Z,8.61
2017-11-17T05:19:26.779Z,8.63
2017-11-17T05:20:27.198Z,8.55
2017-11-17T05:21:27.655Z,8.63
2017-11-17T05:22:49.204Z,8.61
2017-11-17T05:23:28.478Z,8.63
2017-11-17T05:24:28.903Z,8.64
2017-11-17T05:25:29.323Z,8.58
2017-11-17T05:26:29.755Z,8.58
2017-11-17T05:27:30.208Z,8.52
2017-11-17T05:28:51.750Z,8.51
2017-11-17T05:29:31.021Z,8.45
2017-11-17T05:30:31.447Z,8.53
2017-11-17T05:31:31.870Z,8.46
2017-11-17T05:32:32.291Z,8.55
2017-11-17T05:33:32.719Z,8.52
2017-11-17T05:34:54.300Z,8.52
2017-11-17T05:35:33.572Z,8.46
2017-11-17T05:36:33.993Z,8.53
2017-11-17T05:37:34.418Z,8.53
2017-11-17T05:38:34.856Z,8.61
2017-11-17T05:39:35.270Z,8.48
2017-11-17T05:40:56.878Z,8.56
2017-11-17T05:41:36.112Z,8.51
2017-11-17T05:42:36.539Z,8.53
2017-11-17T05:43:36.966Z,8.60
2017-11-17T05:44:37.388Z,8.56
2017-11-17T05:45:37.812Z,8.70
2017-11-17T05:46:59.394Z,8.69
2017-11-17T05:47:38.659Z,8.64
2017-11-17T05:48:39.086Z,8.67
2017-11-17T05:49:39.512Z,8.71
2017-11-17T05:50:39.938Z,8.69
2017-11-17T05:51:40.360Z,8.70
2017-11-17T05:53:01.954Z,8.73
2017-11-17T05:53:41.210Z,8.61
2017-11-17T05:54:41.643Z,8.70
2017-11-17T05:55:42.061Z,8.69
2017-11-17T05:56:42.491Z,8.67
2017-11-17T05:57:42.909Z,8.61
2017-11-17T05:59:04.488Z,8.64
2017-11-17T05:59:43.759Z,8.69
2017-11-17T06:00:44.181Z,8.69
2017-11-17T06:01:44.607Z,8.66
2017-11-17T06:02:45.032Z,8.56
2017-11-17T06:03:45.454Z,8.63
2017-11-17T06:05:07.039Z,8.56
2017-11-17T06:05:46.306Z,8.58
2017-11-17T06:06:46.732Z,8.55
2017-11-17T06:07:47.153Z,8.48
2017-11-17T06:08:47.580Z,8.51
2017-11-17T06:09:48.001Z,8.48
2017-11-17T06:11:09.582Z,8.44
2017-11-17T06:11:48.854Z,8.49
2017-11-17T06:12:49.275Z,8.46
2017-11-17T06:13:49.702Z,8.52
2017-11-17T06:14:50.128Z,8.56
2017-11-17T06:15:50.552Z,8.55
2017-11-17T06:17:12.132Z,8.49
2017-11-17T06:17:51.403Z,8.55
2017-11-17T06:18:51.821Z,8.56
2017-11-17T06:19:52.256Z,8.49
2017-11-17T06:20:52.676Z,8.60
2017-11-17T06:21:53.096Z,8.70
2017-11-17T06:23:14.684Z,8.70
2017-11-17T06:23:53.951Z,8.49
2017-11-17T06:24:54.375Z,8.52
2017-11-17T06:25:54.794Z,8.46
2017-11-17T06:26:55.226Z,8.52
2017-11-17T06:27:55.646Z,8.49
2017-11-17T06:29:17.225Z,8.58
2017-11-17T06:29:56.538Z,8.60
2017-11-17T06:30:56.916Z,8.49
2017-11-17T06:31:57.338Z,8.46
2017-11-17T06:32:57.774Z,8.48
2017-11-17T06:33:58.188Z,8.49
2017-11-17T06:35:19.773Z,8.51
2017-11-17T06:35:59.046Z,8.58
2017-11-17T06:36:59.464Z,8.51
2017-11-17T06:37:59.887Z,8.46
2017-11-17T06:39:00.312Z,8.44
2017-11-17T06:40:00.736Z,8.46
2017-11-17T06:41:22.322Z,8.41
2017-11-17T06:42:01.591Z,8.42
2017-11-17T06:43:02.035Z,8.41
2017-11-17T06:44:02.436Z,8.36
2017-11-17T06:45:02.874Z,8.27
2017-11-17T06:46:03.291Z,8.36
2017-11-17T06:47:24.865Z,8.30
2017-11-17T06:48:04.132Z,8.27
2017-11-17T06:49:04.559Z,8.36
2017-11-17T06:50:04.984Z,8.33
2017-11-17T06:51:05.403Z,8.23
2017-11-17T06:52:05.830Z,8.27
2017-11-17T06:53:27.415Z,8.20
2017-11-17T06:54:06.678Z,8.24
2017-11-17T06:55:07.108Z,8.18
2017-11-17T06:56:07.528Z,8.13
2017-11-17T06:57:07.961Z,8.16
2017-11-17T06:58:08.377Z,8.12
2017-11-17T06:59:29.969Z,8.18
2017-11-17T07:00:09.228Z,8.13
2017-11-17T07:01:09.652Z,8.13
2017-11-17T07:02:10.076Z,8.16
2017-11-17T07:03:10.500Z,8.03
2017-11-17T07:04:10.927Z,8.08
2017-11-17T07:05:32.505Z,8.10
2017-11-17T07:06:11.774Z,8.08
2017-11-17T07:07:12.204Z,8.05
2017-11-17T07:08:12.624Z,8.06
2017-11-17T07:09:13.048Z,8.06
2017-11-17T07:10:13.473Z,8.09
2017-11-17T07:11:35.052Z,8.08
2017-11-17T07:12:14.325Z,7.98
2017-11-17T07:13:14.746Z,8.08
2017-11-17T07:14:15.170Z,8.08
2017-11-17T07:15:15.594Z,8.01
2017-11-17T07:16:16.020Z,8.00
2017-11-17T07:17:37.597Z,8.08
2017-11-17T07:18:16.879Z,8.05
2017-11-17T07:19:17.290Z,8.06
2017-11-17T07:20:17.718Z,7.97
2017-11-17T07:21:18.139Z,7.93
2017-11-17T07:22:18.569Z,8.00
2017-11-17T07:23:40.150Z,7.97
2017-11-17T07:24:19.412Z,7.97
2017-11-17T07:25:19.837Z,7.94
2017-11-17T07:26:20.265Z,9.87
2017-11-17T07:27:20.703Z,9.43
2017-11-17T07:28:21.110Z,9.29
2017-11-17T07:29:42.693Z,9.72
2017-11-17T07:30:21.962Z,9.16
2017-11-17T07:31:22.384Z,9.72
2017-11-17T07:32:22.814Z,9.44
2017-11-17T07:33:23.232Z,9.73
2017-11-17T07:34:23.659Z,9.89
2017-11-17T07:35:45.246Z,10.23
2017-11-17T07:36:24.506Z,10.35
2017-11-17T07:37:24.934Z,10.20
2017-11-17T07:38:25.363Z,9.89
2017-11-17T07:39:25.787Z,9.13
2017-11-17T07:40:26.209Z,8.69
2017-11-17T07:41:47.789Z,8.51
2017-11-17T07:42:27.053Z,8.36
2017-11-17T07:43:27.492Z,8.45
2017-11-17T07:44:27.903Z,8.37
2017-11-17T07:45:28.331Z,8.26
2017-11-17T07:46:28.754Z,8.24
2017-11-17T07:47:50.342Z,8.24
2017-11-17T07:48:29.606Z,8.24
2017-11-17T07:49:30.029Z,8.20
2017-11-17T07:50:30.454Z,8.18
2017-11-17T07:51:30.879Z,8.15
2017-11-17T07:52:31.302Z,8.19
2017-11-17T07:53:52.889Z,8.19
2017-11-17T07:54:32.171Z,8.15
2017-11-17T07:55:32.581Z,8.06
2017-11-17T07:56:33.011Z,8.12
2017-11-17T07:57:33.429Z,8.05
2017-11-17T07:58:33.876Z,8.08
2017-11-17T07:59:55.445Z,8.03
2017-11-17T08:00:34.704Z,8.03
2017-11-17T08:01:35.125Z,8.09
2017-11-17T08:02:35.563Z,8.18
2017-11-17T08:03:35.975Z,8.10
2017-11-17T08:04:36.402Z,8.13
2017-11-17T08:05:57.982Z,8.06
2017-11-17T08:06:37.254Z,8.10
2017-11-17T08:07:37.679Z,8.03
2017-11-17T08:08:38.102Z,8.08
2017-11-17T08:09:38.527Z,8.08
2017-11-17T08:10:38.961Z,8.03
2017-11-17T08:12:00.536Z,8.10
2017-11-17T08:12:39.802Z,8.10
2017-11-17T08:13:40.224Z,8.16
2017-11-17T08:14:40.653Z,8.27
2017-11-17T08:15:41.075Z,8.27
2017-11-17T08:16:41.516Z,8.15
2017-11-17T08:18:03.127Z,8.23
2017-11-17T08:18:42.357Z,8.16
2017-11-17T08:19:42.773Z,8.13
2017-11-17T08:20:43.208Z,8.16
2017-11-17T08:21:43.629Z,8.08
2017-11-17T08:22:44.047Z,8.18
2017-11-17T08:24:05.633Z,8.19
2017-11-17T08:24:44.899Z,8.26
2017-11-17T08:25:45.324Z,8.36
2017-11-17T08:26:45.751Z,8.42
2017-11-17T08:27:46.193Z,8.48
2017-11-17T08:28:46.600Z,8.48
2017-11-17T08:30:08.187Z,8.37
2017-11-17T08:30:47.453Z,8.49
2017-11-17T08:31:47.870Z,8.38
2017-11-17T08:32:48.336Z,8.49
2017-11-17T08:33:48.726Z,8.46
2017-11-17T08:34:49.160Z,8.34
2017-11-17T08:36:10.732Z,8.36
2017-11-17T08:36:50.000Z,8.27
2017-11-17T08:37:50.428Z,8.36
2017-11-17T08:38:50.853Z,8.38
2017-11-17T08:39:51.275Z,8.41
2017-11-17T08:40:51.703Z,8.34
2017-11-17T08:42:13.282Z,8.33
2017-11-17T08:42:52.551Z,8.36
2017-11-17T08:43:52.977Z,8.42
2017-11-17T08:44:53.406Z,8.45
2017-11-17T08:45:53.832Z,8.44
2017-11-17T08:46:54.258Z,8.55
2017-11-17T08:48:15.834Z,8.58
2017-11-17T08:48:55.105Z,8.51
2017-11-17T08:49:55.532Z,8.52
2017-11-17T08:50:55.962Z,8.52
2017-11-17T08:51:56.380Z,8.53
2017-11-17T08:52:56.808Z,8.56
2017-11-17T08:54:18.391Z,8.56
2017-11-17T08:54:57.670Z,8.48
2017-11-17T08:55:58.081Z,8.52
2017-11-17T08:56:58.518Z,8.48
2017-11-17T08:57:58.939Z,8.61
2017-11-17T08:58:59.364Z,8.66
2017-11-17T09:00:20.943Z,8.60
2017-11-17T09:01:00.214Z,8.71
2017-11-17T09:02:00.636Z,8.76
2017-11-17T09:03:01.062Z,8.67
2017-11-17T09:04:01.484Z,8.79
2017-11-17T09:05:01.909Z,8.81
2017-11-17T09:06:23.495Z,8.88
2017-11-17T09:07:02.759Z,8.95
2017-11-17T09:08:03.194Z,8.99
2017-11-17T09:09:03.613Z,8.88
2017-11-17T09:10:04.045Z,8.99
2017-11-17T09:11:04.464Z,9.14
2017-11-17T09:12:26.045Z,9.18
2017-11-17T09:13:05.319Z,9.25
2017-11-17T09:14:05.743Z,9.31
2017-11-17T09:15:06.166Z,9.31
2017-11-17T09:16:06.608Z,9.31
2017-11-17T09:17:07.023Z,9.32
2017-11-17T09:18:28.609Z,9.29
2017-11-17T09:19:07.875Z,9.19
2017-11-17T09:20:08.305Z,8.99
2017-11-17T09:21:08.727Z,8.88
2017-11-17T09:22:09.159Z,9.11
2017-11-17T09:23:09.583Z,9.19
2017-11-17T09:24:31.165Z,9.31
2017-11-17T09:25:10.433Z,9.37
2017-11-17T09:26:10.864Z,9.69
2017-11-17T09:27:11.288Z,10.19
2017-11-17T09:28:11.715Z,10.72
2017-11-17T09:29:12.151Z,11.02
2017-11-17T09:30:33.733Z,11.00
2017-11-17T09:31:13.000Z,11.60
2017-11-17T09:32:13.440Z,11.95
2017-11-17T09:33:13.856Z,12.18
2017-11-17T09:34:14.288Z,12.50
2017-11-17T09:35:14.716Z,12.93
2017-11-17T09:36:36.312Z,12.60
2017-11-17T09:37:15.593Z,12.60
2017-11-17T09:38:16.018Z,12.35
2017-11-17T09:39:16.475Z,13.39
2017-11-17T09:40:16.891Z,13.33
2017-11-17T09:41:17.313Z,14.18
2017-11-17T09:42:38.908Z,13.89
2017-11-17T09:43:18.180Z,13.78
2017-11-17T09:44:18.621Z,12.67
2017-11-17T09:45:19.057Z,11.68
2017-11-17T09:46:19.496Z,11.17
2017-11-17T09:47:19.922Z,11.95
2017-11-17T09:48:41.517Z,11.78
2017-11-17T09:49:20.799Z,12.95
2017-11-17T09:50:21.245Z,13.56
2017-11-17T09:51:21.665Z,13.75
2017-11-17T09:52:22.115Z,13.30
2017-11-17T09:53:22.837Z,12.55
2017-11-17T09:54:44.139Z,13.15
2017-11-17T09:55:23.426Z,12.60
2017-11-17T09:56:23.856Z,12.79
2017-11-17T09:57:24.292Z,12.76
2017-11-17T09:58:24.728Z,12.09
2017-11-17T09:59:25.168Z,12.82
2017-11-17T10:00:46.772Z,12.36
2017-11-17T10:01:26.041Z,12.21
2017-11-17T10:02:26.482Z,12.04
2017-11-17T10:03:26.917Z,11.68
2017-11-17T10:04:27.358Z,11.66
2017-11-17T10:05:27.800Z,11.57
2017-11-17T10:06:49.393Z,12.36
2017-11-17T10:07:28.672Z,12.68
2017-11-17T10:08:29.112Z,12.37
2017-11-17T10:09:29.550Z,12.03
2017-11-17T10:10:29.994Z,11.63
2017-11-17T10:11:30.425Z,11.60
2017-11-17T10:12:52.026Z,11.07
2017-11-17T10:13:31.305Z,11.80
2017-11-17T10:14:31.744Z,11.66
2017-11-17T10:15:32.180Z,11.14
2017-11-17T10:16:32.640Z,11.32
2017-11-17T10:17:33.065Z,11.44
2017-11-17T10:18:54.661Z,11.15
2017-11-17T10:19:33.945Z,11.40
2017-11-17T10:20:34.369Z,11.59
2017-11-17T10:21:34.808Z,11.40
2017-11-17T10:22:35.242Z,11.36
2017-11-17T10:23:35.682Z,11.55
2017-11-17T10:24:57.277Z,12.02
2017-11-17T10:25:36.551Z,11.50
2017-11-17T10:26:36.986Z,11.41
2017-11-17T10:27:37.422Z,11.04
2017-11-17T10:28:37.868Z,10.97
2017-11-17T10:29:38.293Z,11.22
2017-11-17T10:30:59.886Z,11.23
2017-11-17T10:31:39.160Z,11.83
2017-11-17T10:32:39.594Z,11.84
2017-11-17T10:33:40.029Z,11.25
2017-11-17T10:34:40.466Z,10.68
2017-11-17T10:35:40.890Z,11.17
2017-11-17T10:37:02.488Z,11.19
2017-11-17T10:37:41.760Z,11.48
2017-11-17T10:38:42.196Z,11.33
2017-11-17T10:39:42.630Z,11.59
2017-11-17T10:40:43.067Z,11.12
2017-11-17T10:41:43.494Z,11.57
2017-11-17T10:43:05.083Z,11.32
2017-11-17T10:43:44.363Z,11.33
2017-11-17T10:44:44.793Z,11.47
2017-11-17T10:45:45.224Z,11.70
2017-11-17T10:46:45.667Z,12.09
2017-11-17T10:47:46.088Z,12.58
2017-11-17T10:49:07.678Z,12.12
2017-11-17T10:49:46.956Z,12.82
2017-11-17T10:50:47.394Z,12.78
2017-11-17T10:51:47.822Z,13.62
2017-11-17T10:52:48.267Z,13.57
2017-11-17T10:53:48.691Z,12.73
2017-11-17T10:55:10.288Z,12.82
2017-11-17T10:55:49.562Z,12.67
2017-11-17T10:56:50.037Z,12.40
2017-11-17T10:57:50.432Z,12.49
2017-11-17T10:58:50.874Z,11.80
2017-11-17T10:59:51.310Z,12.00
2017-11-17T11:01:12.905Z,11.62
2017-11-17T11:01:52.180Z,12.06
2017-11-17T11:02:52.605Z,11.99
2017-11-17T11:03:53.038Z,11.55
2017-11-17T11:04:53.475Z,11.57
2017-11-17T11:05:53.909Z,11.88
2017-11-17T11:07:15.505Z,11.59
2017-11-17T11:07:54.778Z,11.54
2017-11-17T11:08:55.208Z,12.09
2017-11-17T11:09:55.642Z,11.47
2017-11-17T11:10:56.071Z,11.94
2017-11-17T11:11:56.530Z,12.67
2017-11-17T11:13:18.100Z,13.30
2017-11-17T11:13:57.379Z,13.99
2017-11-17T11:14:57.807Z,14.62
2017-11-17T11:15:58.267Z,14.33
2017-11-17T11:16:58.673Z,14.04
2017-11-17T11:17:59.113Z,13.83
2017-11-17T11:19:20.710Z,13.93
2017-11-17T11:19:59.982Z,15.10
2017-11-17T11:21:00.427Z,14.23
2017-11-17T11:22:00.863Z,14.50
2017-11-17T11:23:01.304Z,14.10
2017-11-17T11:24:01.738Z,13.79
2017-11-17T11:25:23.339Z,13.46
2017-11-17T11:26:02.629Z,12.98
2017-11-17T11:27:03.058Z,13.13
2017-11-17T11:28:03.496Z,12.47
2017-11-17T11:29:03.932Z,12.65
2017-11-17T11:30:04.393Z,12.67
2017-11-17T11:31:25.971Z,12.62
2017-11-17T11:32:05.248Z,11.90
2017-11-17T11:33:05.683Z,11.60
2017-11-17T11:34:06.119Z,11.43
2017-11-17T11:35:06.565Z,11.26
2017-11-17T11:36:06.994Z,11.10
2017-11-17T11:37:28.597Z,10.79
2017-11-17T11:38:07.871Z,11.10
2017-11-17T11:39:08.302Z,11.27
2017-11-17T11:40:08.748Z,10.94
2017-11-17T11:41:09.169Z,11.02
2017-11-17T11:42:09.600Z,11.30
2017-11-17T11:43:31.198Z,10.96
2017-11-17T11:44:10.467Z,10.87
2017-11-17T11:45:10.926Z,11.08
2017-11-17T11:46:11.330Z,11.18
2017-11-17T11:47:11.763Z,10.78
2017-11-17T11:48:12.196Z,10.82
2017-11-17T11:49:33.794Z,10.96
2017-11-17T11:50:13.058Z,11.10
2017-11-17T11:51:13.517Z,11.14
2017-11-17T11:52:13.916Z,10.71
2017-11-17T11:53:14.350Z,10.61
2017-11-17T11:54:14.780Z,10.60
2017-11-17T11:55:36.369Z,10.57
2017-11-17T11:56:15.640Z,10.56
2017-11-17T11:57:16.069Z,10.57
2017-11-17T11:58:16.499Z,10.57
2017-11-17T11:59:16.930Z,10.49
2017-11-17T12:00:17.359Z,10.46
2017-11-17T12:01:38.945Z,10.38
2017-11-17T12:02:18.214Z,10.67
2017-11-17T12:03:18.640Z,10.49
2017-11-17T12:04:19.069Z,10.48
2017-11-17T12:05:19.501Z,10.59
2017-11-17T12:06:19.930Z,10.61
2017-11-17T12:07:41.518Z,10.44
2017-11-17T12:08:20.786Z,10.64
2017-11-17T12:09:21.253Z,10.74
2017-11-17T12:10:21.649Z,10.60
2017-11-17T12:11:22.076Z,10.56
2017-11-17T12:12:22.499Z,10.63
2017-11-17T12:13:44.089Z,10.53
2017-11-17T12:14:23.355Z,10.40
2017-11-17T12:15:23.787Z,10.41
2017-11-17T12:16:24.217Z,10.40
2017-11-17T12:17:24.638Z,10.48
2017-11-17T12:18:25.072Z,10.42
2017-11-17T12:19:46.654Z,10.38
2017-11-17T12:20:25.928Z,10.38
2017-11-17T12:21:26.351Z,10.35
2017-11-17T12:22:26.778Z,10.42
2017-11-17T12:23:27.213Z,10.38
2017-11-17T12:24:27.640Z,10.33
2017-11-17T12:25:49.228Z,10.33
2017-11-17T12:26:28.498Z,10.26
2017-11-17T12:27:28.917Z,10.12
2017-11-17T12:28:29.346Z,10.07
2017-11-17T12:29:29.783Z,10.25
2017-11-17T12:30:30.201Z,10.10
2017-11-17T12:31:51.797Z,10.10
2017-11-17T12:32:31.075Z,10.23
2017-11-17T12:33:31.508Z,10.04
2017-11-17T12:34:31.920Z,10.13
2017-11-17T12:35:32.355Z,10.17
2017-11-17T12:36:32.768Z,10.15
2017-11-17T12:37:54.372Z,10.20
2017-11-17T12:38:33.624Z,10.34
2017-11-17T12:39:34.052Z,10.34
2017-11-17T12:40:34.470Z,10.44
2017-11-17T12:41:34.908Z,10.41
2017-11-17T12:42:35.334Z,10.42
2017-11-17T12:43:56.912Z,10.42
2017-11-17T12:44:36.186Z,10.41
2017-11-17T12:45:36.612Z,10.56
2017-11-17T12:46:37.044Z,10.60
2017-11-17T12:47:37.475Z,10.44
2017-11-17T12:48:37.896Z,10.53
2017-11-17T12:49:59.476Z,10.51
2017-11-17T12:50:38.744Z,10.40
2017-11-17T12:51:39.172Z,10.54
2017-11-17T12:52:39.606Z,10.53
2017-11-17T12:53:40.028Z,10.61
2017-11-17T12:54:40.467Z,10.67
2017-11-17T12:56:02.083Z,10.67
2017-11-17T12:56:41.313Z,10.53
2017-11-17T12:57:41.759Z,10.44
2017-11-17T12:58:42.235Z,10.40
2017-11-17T12:59:42.602Z,10.37
2017-11-17T13:00:43.022Z,10.25
2017-11-17T13:02:04.615Z,10.26
2017-11-17T13:02:43.909Z,10.40
2017-11-17T13:03:44.305Z,10.28
2017-11-17T13:04:44.737Z,10.40
2017-11-17T13:05:45.230Z,10.44
2017-11-17T13:06:45.675Z,10.53
2017-11-17T13:08:07.191Z,10.57
2017-11-17T13:08:46.441Z,10.67
2017-11-17T13:09:46.933Z,10.76
2017-11-17T13:10:47.314Z,10.90
2017-11-17T13:11:47.760Z,10.87
2017-11-17T13:12:48.180Z,10.69
2017-11-17T13:14:09.734Z,10.72
2017-11-17T13:14:49.050Z,10.74
2017-11-17T13:15:49.469Z,10.79